Time;durP1;ratioP1;P1;durP2;ratioP2;P2;SDS_P1;SDS_P2;PMS_P1;PMS_P2;Temp;Humidity;BMP_temperature;BMP_pressure;BME280_temperature;BME280_humidity;BME280_pressure;Samples;Min_cycle;Max_cycle;Signal;HPM_P1;HPM_P2
2021/04/20 00:00:29;;;;;;;8.20;3.80;;;9.10;99.90;;;;;;5093054;28;20174;-79
2021/04/20 00:02:54;;;;;;;7.23;3.63;;;9.10;99.90;;;;;;5096861;28;20194;-79
2021/04/20 00:05:20;;;;;;;7.23;4.23;;;9.00;99.90;;;;;;5093971;28;20425;-79
2021/04/20 00:07:46;;;;;;;12.90;5.13;;;9.00;99.90;;;;;;5073997;28;20160;-78
2021/04/20 00:10:15;;;;;;;9.90;4.43;;;9.00;99.90;;;;;;5072132;28;20401;-78
2021/04/20 00:12:41;;;;;;;8.47;4.40;;;8.90;99.90;;;;;;5065955;28;20438;-78
2021/04/20 00:15:12;;;;;;;5.63;3.67;;;8.90;99.90;;;;;;5052645;28;20417;-78
2021/04/20 00:17:38;;;;;;;5.90;4.13;;;8.80;99.90;;;;;;5056696;28;20410;-79
2021/04/20 00:20:09;;;;;;;7.00;3.77;;;8.80;99.90;;;;;;5059147;28;20893;-79
2021/04/20 00:22:34;;;;;;;9.93;4.60;;;8.70;99.90;;;;;;5058980;28;20465;-79
2021/04/20 00:25:00;;;;;;;6.10;3.83;;;8.70;99.90;;;;;;5061345;28;20419;-79
2021/04/20 00:27:27;;;;;;;6.40;4.10;;;8.70;99.90;;;;;;5072062;28;20198;-78
2021/04/20 00:29:52;;;;;;;7.20;4.40;;;8.60;99.90;;;;;;5071652;28;20407;-78
2021/04/20 00:32:18;;;;;;;7.60;4.43;;;8.60;99.90;;;;;;5074388;28;21114;-78
2021/04/20 00:34:52;;;;;;;9.97;4.43;;;8.50;99.90;;;;;;5076787;28;20243;-79
2021/04/20 00:37:18;;;;;;;8.57;4.20;;;8.50;99.90;;;;;;5079497;28;20173;-78
2021/04/20 00:39:43;;;;;;;11.30;4.33;;;8.40;99.90;;;;;;5083553;28;20926;-79
2021/04/20 00:42:09;;;;;;;7.70;4.30;;;8.40;99.90;;;;;;5080617;28;20198;-78
2021/04/20 00:44:35;;;;;;;6.67;4.67;;;8.40;99.90;;;;;;5076203;28;20622;-78
2021/04/20 00:47:03;;;;;;;5.87;3.77;;;8.40;99.90;;;;;;5075839;28;20691;-78
2021/04/20 00:49:29;;;;;;;5.47;4.03;;;8.30;99.90;;;;;;5085401;28;20427;-78
2021/04/20 00:51:55;;;;;;;6.83;4.30;;;8.30;99.90;;;;;;5094855;28;20496;-77
2021/04/20 00:54:22;;;;;;;10.90;4.73;;;8.30;99.90;;;;;;5096620;28;20510;-78
2021/04/20 00:56:48;;;;;;;11.70;5.50;;;8.20;99.90;;;;;;5095705;28;20406;-78
2021/04/20 00:59:13;;;;;;;6.30;4.00;;;8.20;99.90;;;;;;5095171;28;20404;-78
2021/04/20 01:01:39;;;;;;;8.33;4.60;;;8.20;99.90;;;;;;5094006;28;20197;-78
2021/04/20 01:04:08;;;;;;;10.93;4.30;;;8.10;99.90;;;;;;5086951;28;20419;-78
2021/04/20 01:06:34;;;;;;;8.80;4.73;;;8.10;99.90;;;;;;5080696;28;20631;-79
2021/04/20 01:09:00;;;;;;;8.27;4.67;;;8.10;99.90;;;;;;5076488;28;20423;-78
2021/04/20 01:11:26;;;;;;;6.50;4.63;;;8.20;99.90;;;;;;5075752;28;20253;-78
2021/04/20 01:13:51;;;;;;;5.53;3.97;;;8.10;99.90;;;;;;5078279;28;20462;-79
2021/04/20 01:16:20;;;;;;;7.80;4.33;;;8.10;99.90;;;;;;5080002;28;20404;-79
2021/04/20 01:18:45;;;;;;;5.97;4.00;;;8.10;99.90;;;;;;5074248;28;20199;-79
2021/04/20 01:21:13;;;;;;;5.80;4.63;;;8.00;99.90;;;;;;5074938;28;20539;-79
2021/04/20 01:23:56;;;;;;;10.63;4.93;;;8.00;99.90;;;;;;5075410;28;20538;-79
2021/04/20 01:26:28;;;;;;;7.20;4.53;;;8.00;99.90;;;;;;5075078;28;20935;-79
2021/04/20 01:28:56;;;;;;;7.13;4.40;;;7.90;99.90;;;;;;5073357;28;20443;-79
2021/04/20 01:31:22;;;;;;;7.63;4.17;;;7.90;99.90;;;;;;5074747;28;20404;-79
2021/04/20 01:33:48;;;;;;;6.37;4.67;;;7.90;99.90;;;;;;5075362;28;20424;-79
2021/04/20 01:36:19;;;;;;;8.93;5.53;;;7.80;99.90;;;;;;5075910;28;20498;-79
2021/04/20 01:38:46;;;;;;;9.23;4.10;;;7.80;99.90;;;;;;5076117;28;20523;-80
2021/04/20 01:41:12;;;;;;;6.47;4.63;;;7.80;99.90;;;;;;5076087;28;20452;-79
2021/04/20 01:43:39;;;;;;;9.90;5.40;;;7.70;99.90;;;;;;5074645;28;20424;-79
2021/04/20 01:46:05;;;;;;;8.77;5.50;;;7.70;99.90;;;;;;5074600;28;20200;-79
2021/04/20 01:48:31;;;;;;;7.83;4.50;;;7.70;99.90;;;;;;5076624;28;20958;-79
2021/04/20 01:50:57;;;;;;;9.07;5.10;;;7.70;99.90;;;;;;5094124;28;20166;-79
2021/04/20 01:53:23;;;;;;;9.60;5.57;;;7.60;99.90;;;;;;5095031;28;20450;-79
2021/04/20 01:55:48;;;;;;;8.13;4.73;;;7.60;99.90;;;;;;5095290;28;20404;-79
2021/04/20 01:58:16;;;;;;;11.23;4.97;;;7.50;99.90;;;;;;5095249;28;20169;-79
2021/04/20 02:00:43;;;;;;;10.90;4.83;;;7.50;99.90;;;;;;5095217;28;20227;-79
2021/04/20 02:03:09;;;;;;;10.50;5.17;;;7.50;99.90;;;;;;5075361;28;20490;-79
2021/04/20 02:05:36;;;;;;;8.73;4.80;;;7.50;99.90;;;;;;5082417;28;20763;-79
2021/04/20 02:08:03;;;;;;;10.83;5.23;;;7.50;99.90;;;;;;5095773;28;20810;-79
2021/04/20 02:10:29;;;;;;;8.87;5.50;;;7.50;99.90;;;;;;5095646;28;20408;-79
2021/04/20 02:12:55;;;;;;;9.90;5.77;;;7.40;99.90;;;;;;5095054;28;20484;-79
2021/04/20 02:15:21;;;;;;;7.63;5.90;;;7.40;99.90;;;;;;5094142;28;20395;-79
2021/04/20 02:17:48;;;;;;;10.47;5.93;;;7.40;99.90;;;;;;5095556;28;20191;-79
2021/04/20 02:20:14;;;;;;;8.10;5.70;;;7.40;99.90;;;;;;5095923;28;20425;-79
2021/04/20 02:22:45;;;;;;;7.83;5.17;;;7.40;99.90;;;;;;5101132;28;20883;-79
2021/04/20 02:25:13;;;;;;;9.90;5.90;;;7.30;99.90;;;;;;5093120;28;20473;-79
2021/04/20 02:27:39;;;;;;;9.50;5.20;;;7.30;99.90;;;;;;5086179;28;20396;-80
2021/04/20 02:30:08;;;;;;;7.20;5.43;;;7.20;99.90;;;;;;5090508;28;20405;-79
2021/04/20 02:32:41;;;;;;;18.70;5.87;;;7.20;99.90;;;;;;5074626;28;20512;-79
2021/04/20 02:35:10;;;;;;;8.70;5.37;;;7.20;99.90;;;;;;5074963;28;20533;-79
2021/04/20 02:37:36;;;;;;;8.83;4.93;;;7.20;99.90;;;;;;5074183;28;20775;-79
2021/04/20 02:40:11;;;;;;;8.97;5.70;;;7.20;99.90;;;;;;5082483;28;20404;-80
2021/04/20 02:42:39;;;;;;;14.90;5.50;;;7.10;99.90;;;;;;5092740;28;20458;-79
2021/04/20 02:45:06;;;;;;;9.90;5.17;;;7.00;99.90;;;;;;5083295;28;20405;-79
2021/04/20 02:47:36;;;;;;;7.30;5.70;;;7.00;99.90;;;;;;5084000;28;20527;-78
2021/04/20 02:50:05;;;;;;;14.83;11.60;;;6.90;99.90;;;;;;5078180;28;20409;-78
2021/04/20 02:52:31;;;;;;;14.40;9.10;;;6.90;99.90;;;;;;5073308;28;20433;-79
2021/04/20 02:54:57;;;;;;;17.13;8.90;;;6.90;99.90;;;;;;5073409;28;20733;-79
2021/04/20 02:57:23;;;;;;;10.50;7.77;;;6.90;99.90;;;;;;5072787;28;20405;-78
2021/04/20 02:59:49;;;;;;;10.53;7.17;;;6.80;99.90;;;;;;5074248;28;20170;-78
2021/04/20 03:02:17;;;;;;;9.33;8.00;;;6.70;99.90;;;;;;5073875;28;20259;-78
2021/04/20 03:04:43;;;;;;;10.23;6.43;;;6.70;99.90;;;;;;5073428;28;21162;-77
2021/04/20 03:07:12;;;;;;;12.23;6.80;;;6.70;99.90;;;;;;5073506;28;20949;-80
2021/04/20 03:09:38;;;;;;;10.33;5.87;;;6.60;99.90;;;;;;5074327;28;20952;-79
2021/04/20 03:12:03;;;;;;;9.10;6.30;;;6.60;99.90;;;;;;5073966;28;20547;-79
2021/04/20 03:14:32;;;;;;;10.73;5.50;;;6.60;99.90;;;;;;5074261;28;20177;-79
2021/04/20 03:16:57;;;;;;;7.70;5.90;;;6.50;99.90;;;;;;5073421;28;20195;-78
2021/04/20 03:19:23;;;;;;;13.47;5.93;;;6.50;99.90;;;;;;5074098;28;20932;-79
2021/04/20 03:21:50;;;;;;;10.20;5.67;;;6.40;99.90;;;;;;5077077;28;20265;-79
2021/04/20 03:24:31;;;;;;;10.53;5.60;;;6.40;99.90;;;;;;5077682;28;20172;-79
2021/04/20 03:26:56;;;;;;;12.63;6.60;;;6.40;99.90;;;;;;5078245;28;20424;-79
2021/04/20 03:29:23;;;;;;;6.40;5.17;;;6.40;99.90;;;;;;5078914;28;20409;-79
2021/04/20 03:31:49;;;;;;;11.60;6.60;;;6.30;99.90;;;;;;5074935;28;20170;-80
2021/04/20 03:34:22;;;;;;;10.83;6.23;;;6.30;99.90;;;;;;5073680;28;20408;-78
2021/04/20 03:36:54;;;;;;;9.33;7.40;;;6.20;99.90;;;;;;5074557;28;20434;-78
2021/04/20 03:39:21;;;;;;;9.10;6.13;;;6.20;99.90;;;;;;5073873;28;20405;-79
2021/04/20 03:42:07;;;;;;;10.73;6.20;;;6.20;99.90;;;;;;5073586;28;20947;-78
2021/04/20 03:44:47;;;;;;;8.50;6.57;;;6.10;99.90;;;;;;5071888;28;20773;-77
2021/04/20 03:47:22;;;;;;;9.63;7.30;;;6.10;99.90;;;;;;5052750;28;20389;-79
2021/04/20 03:49:49;;;;;;;13.93;7.30;;;6.10;99.90;;;;;;5079944;28;20831;-78
2021/04/20 03:52:33;;;;;;;9.27;6.47;;;6.00;99.90;;;;;;5097947;28;20432;-79
2021/04/20 03:55:00;;;;;;;13.10;6.93;;;6.00;99.90;;;;;;5099364;28;20471;-79
2021/04/20 03:57:27;;;;;;;15.07;6.60;;;6.00;99.90;;;;;;5101827;28;20892;-78
2021/04/20 03:59:56;;;;;;;17.03;7.00;;;5.90;99.90;;;;;;5107181;28;20400;-80
2021/04/20 04:02:23;;;;;;;15.43;7.20;;;5.90;99.90;;;;;;5098004;28;20551;-78
2021/04/20 04:04:49;;;;;;;10.30;6.20;;;5.90;99.90;;;;;;5095538;28;20803;-79
2021/04/20 04:07:19;;;;;;;12.50;8.13;;;5.80;99.90;;;;;;5097312;28;20404;-79
2021/04/20 04:09:48;;;;;;;11.40;6.40;;;5.80;99.90;;;;;;5098295;28;20915;-78
2021/04/20 04:12:16;;;;;;;12.23;7.10;;;5.80;99.90;;;;;;5097673;28;20423;-78
2021/04/20 04:14:43;;;;;;;11.23;6.90;;;5.80;99.90;;;;;;5097653;28;20432;-77
2021/04/20 04:17:12;;;;;;;13.97;6.70;;;5.80;99.90;;;;;;5097024;28;20458;-78
2021/04/20 04:19:46;;;;;;;13.73;7.03;;;5.80;99.90;;;;;;5097594;28;20411;-78
2021/04/20 04:22:13;;;;;;;11.90;7.13;;;5.80;99.90;;;;;;5098318;28;20466;-78
2021/04/20 04:24:49;;;;;;;15.43;6.87;;;5.80;99.90;;;;;;5085256;28;20401;-78
2021/04/20 04:27:18;;;;;;;14.17;8.37;;;5.80;99.90;;;;;;5094149;28;20892;-78
2021/04/20 04:29:47;;;;;;;17.87;7.40;;;5.80;99.90;;;;;;5095820;28;20410;-79
2021/04/20 04:32:15;;;;;;;14.60;7.67;;;5.90;99.90;;;;;;5097151;28;20422;-78
2021/04/20 04:34:43;;;;;;;14.77;8.03;;;5.90;99.90;;;;;;5096625;28;20422;-79
2021/04/20 04:37:10;;;;;;;9.23;7.30;;;5.90;99.90;;;;;;5097919;28;20407;-80
2021/04/20 04:39:36;;;;;;;12.43;6.90;;;5.90;99.90;;;;;;5097951;28;20408;-78
2021/04/20 04:42:01;;;;;;;12.90;7.10;;;5.90;99.90;;;;;;5097313;28;20533;-78
2021/04/20 04:44:27;;;;;;;14.40;6.73;;;5.90;99.90;;;;;;5098175;28;20234;-79
2021/04/20 04:46:53;;;;;;;21.87;9.13;;;5.90;99.90;;;;;;5098271;28;20192;-79
2021/04/20 04:49:19;;;;;;;10.90;7.97;;;5.90;99.90;;;;;;5090716;28;20170;-78
2021/04/20 04:51:48;;;;;;;9.70;7.30;;;5.90;99.90;;;;;;5076250;28;20253;-78
2021/04/20 04:54:16;;;;;;;17.00;7.93;;;6.00;99.90;;;;;;5076074;28;20535;-76
2021/04/20 04:56:42;;;;;;;10.67;7.70;;;6.00;99.90;;;;;;5076841;28;20970;-77
2021/04/20 04:59:11;;;;;;;12.97;8.57;;;6.00;99.90;;;;;;5076106;28;20415;-76
2021/04/20 05:01:38;;;;;;;12.30;8.47;;;6.00;99.90;;;;;;5079046;28;20476;-78
2021/04/20 05:04:08;;;;;;;12.80;6.90;;;6.10;99.90;;;;;;5081710;28;20413;-77
2021/04/20 05:06:45;;;;;;;10.20;6.53;;;6.10;99.90;;;;;;5079125;28;20873;-79
2021/04/20 05:09:12;;;;;;;11.30;8.53;;;6.20;99.90;;;;;;5081753;28;20395;-77
2021/04/20 05:11:42;;;;;;;9.20;7.57;;;6.20;99.90;;;;;;5080948;28;20413;-77
2021/04/20 05:14:08;;;;;;;12.67;7.23;;;6.20;99.90;;;;;;5083208;28;20870;-77
2021/04/20 05:16:35;;;;;;;12.13;7.53;;;6.30;99.90;;;;;;5080586;28;20412;-76
2021/04/20 05:19:05;;;;;;;7.77;6.83;;;6.40;99.90;;;;;;5078062;28;20409;-77
2021/04/20 05:21:31;;;;;;;11.93;7.00;;;6.40;99.90;;;;;;5075175;28;20448;-76
2021/04/20 05:23:57;;;;;;;17.90;8.03;;;6.50;99.90;;;;;;5064256;28;20463;-77
2021/04/20 05:26:28;;;;;;;13.53;7.60;;;6.60;99.90;;;;;;5055609;28;20217;-77
2021/04/20 05:28:56;;;;;;;13.93;7.60;;;6.70;99.90;;;;;;5054853;28;20821;-76
2021/04/20 05:31:23;;;;;;;13.10;6.80;;;6.70;99.90;;;;;;5056497;28;20697;-77
2021/04/20 05:33:55;;;;;;;8.90;7.27;;;6.70;99.90;;;;;;5054113;28;20425;-77
2021/04/20 05:36:21;;;;;;;15.27;7.47;;;6.90;99.90;;;;;;5054061;28;20405;-75
2021/04/20 05:38:51;;;;;;;9.47;6.00;;;7.40;99.90;;;;;;5053693;28;20417;-76
2021/04/20 05:41:29;;;;;;;14.13;8.73;;;7.90;99.90;;;;;;5053270;28;20265;-76
2021/04/20 05:43:56;;;;;;;12.83;6.43;;;7.80;99.90;;;;;;5053486;28;20422;-76
2021/04/20 05:46:22;;;;;;;12.20;7.87;;;7.90;99.90;;;;;;5053357;28;21052;-76
2021/04/20 05:48:49;;;;;;;11.20;6.27;;;8.50;99.90;;;;;;5065079;28;20469;-76
2021/04/20 05:51:19;;;;;;;10.97;5.97;;;8.90;99.90;;;;;;5093616;28;20412;-77
2021/04/20 05:53:46;;;;;;;10.83;5.63;;;9.20;99.90;;;;;;5091770;28;20963;-75
2021/04/20 05:56:13;;;;;;;10.40;6.70;;;9.70;99.90;;;;;;5093311;28;20899;-75
2021/04/20 05:58:38;;;;;;;7.90;5.70;;;9.80;99.90;;;;;;5093331;28;20434;-77
2021/04/20 06:01:05;;;;;;;8.73;5.60;;;10.30;99.90;;;;;;5091215;28;20412;-77
2021/04/20 06:03:34;;;;;;;9.97;6.23;;;11.10;99.90;;;;;;5084854;28;20286;-77
2021/04/20 06:06:02;;;;;;;11.73;6.90;;;10.60;99.90;;;;;;5097809;28;20431;-77
2021/04/20 06:08:30;;;;;;;9.57;6.30;;;10.80;99.90;;;;;;5093962;28;20430;-76
2021/04/20 06:10:57;;;;;;;8.80;6.10;;;11.90;99.90;;;;;;5098040;28;20416;-77
2021/04/20 06:13:25;;;;;;;12.00;6.47;;;12.20;99.90;;;;;;5099011;28;20442;-75
2021/04/20 06:15:51;;;;;;;7.80;5.50;;;11.40;99.90;;;;;;5095833;28;20392;-76
2021/04/20 06:18:16;;;;;;;15.27;7.63;;;11.70;99.90;;;;;;5093596;28;20408;-76
2021/04/20 06:20:42;;;;;;;8.93;5.57;;;12.10;99.90;;;;;;5103840;28;20414;-76
2021/04/20 06:23:08;;;;;;;17.47;7.30;;;12.30;99.90;;;;;;5103868;28;20209;-77
2021/04/20 06:25:34;;;;;;;11.43;5.73;;;12.80;99.90;;;;;;5104814;28;20646;-76
2021/04/20 06:27:59;;;;;;;12.90;6.27;;;12.20;99.90;;;;;;5098120;28;20167;-77
2021/04/20 06:30:25;;;;;;;8.20;5.83;;;12.40;99.90;;;;;;5100003;28;20484;-77
2021/04/20 06:32:51;;;;;;;10.30;7.00;;;12.20;99.90;;;;;;5094689;28;20233;-76
2021/04/20 06:35:20;;;;;;;9.60;6.20;;;12.00;99.90;;;;;;5092520;28;20179;-76
2021/04/20 06:37:49;;;;;;;13.13;8.30;;;12.90;99.90;;;;;;5095102;28;20458;-78
2021/04/20 06:40:35;;;;;;;9.67;6.17;;;13.40;99.90;;;;;;5089452;28;20520;-78
2021/04/20 06:43:06;;;;;;;9.73;6.83;;;13.30;99.90;;;;;;5077843;28;20515;-80
2021/04/20 06:45:45;;;;;;;8.27;5.50;;;14.30;99.90;;;;;;5097261;28;20423;-77
2021/04/20 06:48:23;;;;;;;8.90;7.30;;;13.70;99.90;;;;;;5096657;28;20395;-78
2021/04/20 06:50:57;;;;;;;10.83;6.53;;;13.90;99.90;;;;;;5075737;28;20447;-78
2021/04/20 06:53:28;;;;;;;9.23;6.20;;;14.50;99.90;;;;;;5078614;28;20488;-78
2021/04/20 06:56:07;;;;;;;12.77;6.30;;;15.80;99.90;;;;;;5077984;28;20419;-79
2021/04/20 06:58:47;;;;;;;10.13;6.73;;;16.00;99.90;;;;;;5061813;28;20452;-76
2021/04/20 07:01:21;;;;;;;15.00;7.60;;;14.50;99.90;;;;;;5057270;28;20397;-78
2021/04/20 07:03:57;;;;;;;10.73;6.43;;;14.40;99.90;;;;;;5059252;28;20438;-79
2021/04/20 07:06:31;;;;;;;11.40;6.90;;;15.80;99.90;;;;;;5058008;28;20430;-79
2021/04/20 07:09:18;;;;;;;13.10;7.40;;;15.70;99.90;;;;;;5060155;28;20418;-78
2021/04/20 07:11:46;;;;;;;10.40;6.80;;;15.70;99.90;;;;;;5070125;28;20413;-78
2021/04/20 07:14:24;;;;;;;10.30;7.40;;;15.40;99.90;;;;;;5073310;28;20437;-78
2021/04/20 07:17:03;;;;;;;12.57;8.50;;;16.10;99.90;;;;;;5081731;28;20401;-80
2021/04/20 07:19:54;;;;;;;13.33;6.60;;;16.20;99.90;;;;;;5083640;28;20485;-80
2021/04/20 07:23:10;;;;;;;11.10;7.10;;;15.80;99.90;;;;;;5075094;28;20527;-79
2021/04/20 07:25:58;;;;;;;14.30;8.50;;;16.60;99.90;;;;;;5060732;28;20413;-82
2021/04/20 07:29:02;;;;;;;15.30;11.00;;;16.70;99.90;;;;;;5084889;28;20402;-80
2021/04/20 07:32:00;;;;;;;23.57;15.90;;;16.80;99.90;;;;;;5085365;28;20750;-80
2021/04/20 07:34:40;;;;;;;15.90;9.10;;;17.90;99.90;;;;;;5086981;28;20418;-79
2021/04/20 07:37:40;;;;;;;15.23;9.63;;;16.60;99.90;;;;;;5085472;28;20438;-80
2021/04/20 07:40:32;;;;;;;10.40;7.53;;;16.10;99.90;;;;;;5086569;28;20441;-81
2021/04/20 07:43:24;;;;;;;10.27;7.00;;;15.50;99.90;;;;;;5085734;28;20461;-81
2021/04/20 07:45:59;;;;;;;9.23;7.50;;;16.40;99.90;;;;;;5083998;28;20446;-76
2021/04/20 07:48:38;;;;;;;8.90;7.53;;;17.10;99.90;;;;;;5086020;28;20425;-79
2021/04/20 07:51:23;;;;;;;12.23;7.73;;;17.90;99.90;;;;;;5098360;28;20406;-79
2021/04/20 07:54:08;;;;;;;10.00;6.50;;;18.10;99.20;;;;;;5091782;28;20444;-80
2021/04/20 07:56:49;;;;;;;11.07;6.33;;;17.10;99.90;;;;;;5086112;28;20576;-81
2021/04/20 07:59:20;;;;;;;12.70;7.33;;;16.20;99.90;;;;;;5080015;28;20392;-80
2021/04/20 08:02:00;;;;;;;9.80;7.40;;;16.00;99.90;;;;;;5079635;28;20473;-79
2021/04/20 08:04:41;;;;;;;10.07;7.13;;;17.50;99.90;;;;;;5078252;28;20748;-80
2021/04/20 08:07:12;;;;;;;11.37;6.73;;;17.90;99.90;;;;;;5073354;28;20452;-80
2021/04/20 08:09:42;;;;;;;8.00;6.60;;;16.90;99.90;;;;;;5089906;28;20907;-80
2021/04/20 08:12:14;;;;;;;9.40;5.33;;;16.60;99.90;;;;;;5098193;28;20405;-80
2021/04/20 08:14:50;;;;;;;9.93;6.30;;;16.90;99.90;;;;;;5098511;28;20395;-80
2021/04/20 08:17:45;;;;;;;8.53;6.30;;;16.40;99.90;;;;;;5098161;28;20761;-80
2021/04/20 08:20:16;;;;;;;12.63;7.13;;;17.20;99.90;;;;;;5072516;28;20422;-80
2021/04/20 08:22:44;;;;;;;11.27;7.10;;;15.30;99.90;;;;;;5068679;28;20520;-80
2021/04/20 08:25:24;;;;;;;8.70;7.13;;;17.10;99.90;;;;;;5085490;28;20493;-81
2021/04/20 08:27:56;;;;;;;12.93;6.20;;;16.30;99.90;;;;;;5098584;28;20403;-81
2021/04/20 08:30:27;;;;;;;8.40;6.57;;;16.30;99.90;;;;;;5085328;28;20492;-81
2021/04/20 08:32:54;;;;;;;9.53;6.03;;;16.20;99.90;;;;;;5098301;28;20421;-81
2021/04/20 08:35:29;;;;;;;11.30;6.27;;;17.30;99.90;;;;;;5097844;28;20410;-82
2021/04/20 08:38:31;;;;;;;9.60;7.03;;;16.60;99.90;;;;;;5099166;28;20903;-80
2021/04/20 08:41:20;;;;;;;8.97;6.20;;;17.30;99.90;;;;;;5099468;28;20407;-80
2021/04/20 08:43:57;;;;;;;8.63;5.47;;;16.90;99.60;;;;;;5098634;28;20489;-80
2021/04/20 08:46:47;;;;;;;10.00;6.27;;;16.60;99.90;;;;;;5099050;28;20460;-80
2021/04/20 08:49:17;;;;;;;9.00;6.10;;;18.00;99.70;;;;;;5087369;28;20410;-81
2021/04/20 08:51:55;;;;;;;10.30;6.60;;;18.60;97.80;;;;;;5079243;28;20401;-79
2021/04/20 08:54:41;;;;;;;10.50;7.30;;;17.40;98.20;;;;;;5079925;28;20507;-74
2021/04/20 08:57:32;;;;;;;13.60;7.97;;;17.70;98.90;;;;;;5076563;28;20399;-74
2021/04/20 09:00:14;;;;;;;7.80;6.20;;;16.40;99.80;;;;;;5075684;28;20423;-76
2021/04/20 09:03:07;;;;;;;11.37;7.07;;;16.70;99.90;;;;;;5071566;28;20469;-78
2021/04/20 09:05:47;;;;;;;8.73;6.40;;;17.00;99.70;;;;;;5058142;28;20727;-77
2021/04/20 09:08:29;;;;;;;9.60;6.40;;;17.00;98.50;;;;;;5069205;28;20401;-79
2021/04/20 09:11:17;;;;;;;12.03;7.90;;;16.30;99.70;;;;;;5084086;28;20405;-79
2021/04/20 09:13:58;;;;;;;9.73;7.20;;;17.30;99.90;;;;;;5084411;28;20499;-79
2021/04/20 09:16:44;;;;;;;9.30;6.27;;;17.30;99.50;;;;;;5084943;28;20435;-79
2021/04/20 09:19:31;;;;;;;10.50;6.20;;;16.40;99.00;;;;;;5082391;28;20493;-79
2021/04/20 09:22:32;;;;;;;8.30;5.77;;;17.00;99.30;;;;;;5079545;28;20459;-77
2021/04/20 09:25:04;;;;;;;13.83;6.83;;;17.60;97.70;;;;;;5063505;28;20414;-79
2021/04/20 09:27:44;;;;;;;14.33;6.60;;;19.10;96.00;;;;;;5075559;28;20414;-80
2021/04/20 09:30:16;;;;;;;11.30;6.80;;;17.80;96.60;;;;;;5078237;28;20409;-78
2021/04/20 09:32:52;;;;;;;8.53;6.80;;;16.90;98.90;;;;;;5083364;28;20456;-78
2021/04/20 09:35:18;;;;;;;9.20;5.40;;;17.50;98.20;;;;;;5082857;28;20417;-77
2021/04/20 09:37:45;;;;;;;8.83;6.53;;;17.70;98.30;;;;;;5080299;28;20434;-78
2021/04/20 09:40:16;;;;;;;9.40;7.13;;;18.90;97.50;;;;;;5081123;28;20407;-78
2021/04/20 09:42:48;;;;;;;8.43;7.10;;;18.30;97.10;;;;;;5081827;28;20457;-78
2021/04/20 09:45:17;;;;;;;9.60;7.20;;;17.80;98.90;;;;;;5080869;28;20408;-78
2021/04/20 09:47:46;;;;;;;10.33;7.10;;;18.50;95.00;;;;;;5080588;28;20397;-78
2021/04/20 09:50:15;;;;;;;8.97;7.40;;;19.20;95.00;;;;;;5092978;28;20415;-78
2021/04/20 09:52:51;;;;;;;8.97;6.73;;;18.60;94.70;;;;;;5082857;28;20425;-79
2021/04/20 09:55:23;;;;;;;10.80;6.57;;;17.70;97.20;;;;;;5079233;28;20439;-78
2021/04/20 09:57:53;;;;;;;9.07;7.97;;;18.00;96.40;;;;;;5083845;28;20403;-78
2021/04/20 10:00:19;;;;;;;12.10;7.47;;;16.10;97.30;;;;;;5076321;28;20812;-78
2021/04/20 10:03:18;;;;;;;11.90;7.40;;;16.10;99.50;;;;;;5077849;28;20979;-79
2021/04/20 10:06:08;;;;;;;11.50;8.17;;;16.20;99.10;;;;;;5074524;28;20401;-79
2021/04/20 10:09:00;;;;;;;9.20;7.57;;;16.50;99.30;;;;;;5069423;28;20411;-79
2021/04/20 10:12:01;;;;;;;11.10;8.50;;;16.70;99.50;;;;;;5075935;28;20812;-79
2021/04/20 10:14:45;;;;;;;13.73;9.33;;;16.50;99.00;;;;;;5073705;28;20422;-79
2021/04/20 10:17:19;;;;;;;9.50;8.40;;;16.40;99.90;;;;;;5074656;28;20798;-79
2021/04/20 10:19:48;;;;;;;12.70;8.83;;;16.40;99.70;;;;;;5073915;28;20914;-79
2021/04/20 10:22:52;;;;;;;18.40;11.93;;;16.40;99.70;;;;;;5074504;28;20553;-79
2021/04/20 10:25:48;;;;;;;13.10;8.30;;;17.00;99.50;;;;;;5077290;28;20499;-78
2021/04/20 10:28:21;;;;;;;12.20;8.47;;;16.80;99.00;;;;;;5061754;28;20472;-78
2021/04/20 10:30:50;;;;;;;11.47;7.60;;;16.80;99.50;;;;;;5093273;28;20493;-78
2021/04/20 10:33:21;;;;;;;12.17;8.63;;;16.80;99.80;;;;;;5102457;28;20453;-78
2021/04/20 10:35:52;;;;;;;12.97;8.33;;;17.30;99.30;;;;;;5098124;28;20507;-79
2021/04/20 10:38:22;;;;;;;15.90;9.90;;;17.20;99.00;;;;;;5102640;28;20421;-80
2021/04/20 10:40:49;;;;;;;15.03;7.47;;;17.00;98.20;;;;;;5092803;28;20418;-80
2021/04/20 10:43:18;;;;;;;11.80;7.43;;;17.00;98.40;;;;;;5071965;28;20494;-79
2021/04/20 10:45:45;;;;;;;15.30;9.87;;;16.70;98.30;;;;;;5088307;28;20405;-79
2021/04/20 10:48:16;;;;;;;13.60;9.23;;;16.80;99.50;;;;;;5076308;28;20470;-79
2021/04/20 10:50:48;;;;;;;9.20;8.20;;;16.60;99.10;;;;;;5081127;28;20411;-79
2021/04/20 10:53:26;;;;;;;17.43;8.73;;;16.50;98.90;;;;;;5082188;28;20870;-80
2021/04/20 10:56:01;;;;;;;13.03;8.87;;;16.90;98.50;;;;;;5081100;28;20409;-79
2021/04/20 10:58:28;;;;;;;9.10;7.93;;;16.90;97.70;;;;;;5083001;28;20496;-80
2021/04/20 11:00:54;;;;;;;13.23;8.17;;;16.70;98.90;;;;;;5087875;28;20831;-78
2021/04/20 11:03:24;;;;;;;8.50;7.60;;;17.10;97.70;;;;;;5079827;28;20457;-80
2021/04/20 11:05:50;;;;;;;11.17;8.50;;;17.00;97.10;;;;;;5090430;28;20452;-79
2021/04/20 11:08:39;;;;;;;11.73;7.50;;;17.30;97.40;;;;;;5097611;28;20410;-79
2021/04/20 11:11:25;;;;;;;9.40;7.20;;;17.20;96.70;;;;;;5095182;28;20406;-78
2021/04/20 11:13:56;;;;;;;9.53;6.60;;;17.10;97.30;;;;;;5087899;28;20427;-77
2021/04/20 11:16:34;;;;;;;9.80;7.53;;;16.80;96.40;;;;;;5081187;28;20458;-77
2021/04/20 11:19:06;;;;;;;7.73;6.93;;;16.90;96.60;;;;;;5074328;28;20431;-77
2021/04/20 11:21:39;;;;;;;10.73;8.57;;;16.90;96.40;;;;;;5091208;28;20459;-77
2021/04/20 11:24:28;;;;;;;8.50;6.97;;;16.80;96.10;;;;;;5075448;28;20423;-77
2021/04/20 11:26:59;;;;;;;8.10;7.30;;;17.00;96.30;;;;;;5073148;28;21146;-76
2021/04/20 11:29:29;;;;;;;9.00;6.67;;;17.50;95.40;;;;;;5074236;28;20410;-76
2021/04/20 11:31:57;;;;;;;7.40;6.20;;;17.60;95.90;;;;;;5069291;28;20423;-76
2021/04/20 11:34:27;;;;;;;7.97;6.20;;;17.60;95.70;;;;;;5053909;28;20486;-76
2021/04/20 11:37:19;;;;;;;10.43;6.80;;;17.20;96.40;;;;;;5053929;28;20469;-77
2021/04/20 11:40:29;;;;;;;10.37;6.30;;;17.40;96.40;;;;;;5053634;28;20775;-77
2021/04/20 11:43:06;;;;;;;8.57;7.17;;;17.50;96.40;;;;;;5052605;28;20471;-77
2021/04/20 11:45:39;;;;;;;10.50;7.57;;;17.50;96.40;;;;;;5052493;28;20960;-77
2021/04/20 11:48:13;;;;;;;10.03;7.00;;;17.10;95.40;;;;;;5056355;28;20409;-77
2021/04/20 11:50:52;;;;;;;8.20;6.67;;;17.00;96.20;;;;;;5071596;28;21003;-78
2021/04/20 11:53:19;;;;;;;13.30;6.20;;;17.10;96.40;;;;;;5073287;28;20897;-76
2021/04/20 11:55:47;;;;;;;8.93;7.33;;;17.40;96.00;;;;;;5072122;28;20417;-77
2021/04/20 11:58:21;;;;;;;12.30;7.57;;;17.50;96.30;;;;;;5078100;28;20417;-78
2021/04/20 12:00:48;;;;;;;10.10;6.50;;;17.50;96.40;;;;;;5078264;28;20445;-76
2021/04/20 12:03:23;;;;;;;11.57;6.57;;;17.60;96.10;;;;;;5075850;28;20470;-76
2021/04/20 12:05:55;;;;;;;8.37;6.13;;;17.90;95.40;;;;;;5075119;28;20428;-77
2021/04/20 12:08:29;;;;;;;10.90;6.10;;;18.00;95.50;;;;;;5074424;28;20391;-77
2021/04/20 12:10:56;;;;;;;8.37;6.20;;;17.60;95.30;;;;;;5074048;28;20401;-76
2021/04/20 12:13:25;;;;;;;9.53;6.70;;;17.10;95.10;;;;;;5077551;28;20454;-77
2021/04/20 12:16:03;;;;;;;7.67;6.87;;;17.10;95.70;;;;;;5072913;28;20403;-77
2021/04/20 12:18:30;;;;;;;9.03;6.60;;;17.00;95.70;;;;;;5076083;28;20401;-77
2021/04/20 12:21:03;;;;;;;9.60;7.20;;;17.10;95.30;;;;;;5083221;28;20910;-77
2021/04/20 12:23:31;;;;;;;8.87;6.70;;;17.10;95.90;;;;;;5092371;28;20557;-77
2021/04/20 12:25:58;;;;;;;7.90;5.80;;;17.20;96.00;;;;;;5092787;28;20460;-76
2021/04/20 12:28:25;;;;;;;10.37;6.27;;;17.40;94.90;;;;;;5094189;28;20404;-77
2021/04/20 12:30:51;;;;;;;11.93;7.67;;;17.30;95.20;;;;;;5096004;28;20769;-76
2021/04/20 12:33:25;;;;;;;7.93;6.67;;;17.50;95.40;;;;;;5094339;28;20939;-75
2021/04/20 12:35:51;;;;;;;11.60;6.30;;;17.50;95.50;;;;;;5097855;28;20453;-76
2021/04/20 12:38:30;;;;;;;7.40;5.73;;;17.60;95.00;;;;;;5098784;28;20402;-78
2021/04/20 12:41:02;;;;;;;10.90;7.03;;;17.80;95.00;;;;;;5099503;28;20441;-77
2021/04/20 12:43:30;;;;;;;8.50;5.67;;;17.50;95.50;;;;;;5100041;28;20461;-77
2021/04/20 12:46:11;;;;;;;6.87;6.27;;;17.10;96.20;;;;;;5102043;28;20485;-77
2021/04/20 12:48:40;;;;;;;8.87;5.90;;;17.20;96.30;;;;;;5101626;28;20427;-76
2021/04/20 12:51:07;;;;;;;9.73;5.70;;;17.60;96.20;;;;;;5080903;28;20410;-77
2021/04/20 12:53:33;;;;;;;10.37;6.20;;;17.70;95.60;;;;;;5079602;28;20826;-77
2021/04/20 12:56:00;;;;;;;8.23;6.40;;;17.70;95.40;;;;;;5067563;28;20438;-77
2021/04/20 12:58:28;;;;;;;10.90;5.03;;;17.50;95.10;;;;;;5054975;28;20414;-77
2021/04/20 13:01:00;;;;;;;9.33;7.10;;;17.60;93.90;;;;;;5063727;28;20437;-76
2021/04/20 13:03:26;;;;;;;5.97;5.33;;;17.70;94.10;;;;;;5075289;28;20461;-75
2021/04/20 13:05:52;;;;;;;6.33;5.60;;;17.80;94.60;;;;;;5075523;28;20471;-76
2021/04/20 13:08:19;;;;;;;6.70;5.70;;;18.10;94.10;;;;;;5076132;28;20469;-77
2021/04/20 13:11:00;;;;;;;8.07;5.20;;;18.30;92.70;;;;;;5090734;28;20409;-76